createdAt,value
2018-04-27T00:01:36.073Z,59.20
2018-04-27T00:04:02.020Z,59.00
2018-04-27T00:06:27.955Z,58.21
2018-04-27T00:08:53.904Z,57.76
2018-04-27T00:11:19.830Z,57.77
2018-04-27T00:13:45.782Z,57.33
2018-04-27T00:16:12.950Z,56.92
2018-04-27T00:18:38.955Z,56.95
2018-04-27T00:21:04.974Z,58.96
2018-04-27T00:23:30.922Z,58.89
2018-04-27T00:25:56.884Z,59.17
2018-04-27T00:28:22.820Z,59.54
2018-04-27T00:30:48.782Z,58.00
2018-04-27T00:33:14.743Z,57.66
2018-04-27T00:35:40.688Z,58.39
2018-04-27T00:38:06.651Z,59.16
2018-04-27T00:40:32.587Z,58.66
2018-04-27T00:42:58.508Z,57.56
2018-04-27T00:45:24.468Z,57.24
2018-04-27T00:47:50.418Z,57.00
2018-04-27T00:50:16.400Z,57.42
2018-04-27T00:52:42.363Z,55.93
2018-04-27T00:55:08.295Z,55.99
2018-04-27T00:57:34.263Z,55.54
2018-04-27T01:00:00.241Z,55.14
2018-04-27T01:02:26.177Z,55.42
2018-04-27T01:04:52.128Z,56.76
2018-04-27T01:07:18.059Z,56.97
2018-04-27T01:09:43.994Z,58.10
2018-04-27T01:12:09.972Z,59.44
2018-04-27T01:14:35.906Z,59.17
2018-04-27T01:17:01.849Z,58.69
2018-04-27T01:19:27.784Z,58.79
2018-04-27T01:21:53.736Z,58.81
2018-04-27T01:24:19.683Z,59.09
2018-04-27T01:26:45.635Z,58.65
2018-04-27T01:29:11.575Z,59.94
2018-04-27T01:31:37.496Z,60.06
2018-04-27T01:34:03.434Z,60.23
2018-04-27T01:36:29.369Z,61.15
2018-04-27T01:38:55.326Z,60.43
2018-04-27T01:41:21.256Z,60.51
2018-04-27T01:43:47.193Z,60.13
2018-04-27T01:46:13.159Z,59.24
2018-04-27T01:48:39.103Z,60.82
2018-04-27T01:51:05.075Z,62.93
2018-04-27T01:53:31.028Z,63.04
2018-04-27T01:55:57.000Z,62.77
2018-04-27T01:58:22.944Z,62.44
2018-04-27T02:00:48.929Z,60.90
2018-04-27T02:03:14.855Z,61.57
2018-04-27T02:05:40.770Z,61.88
2018-04-27T02:08:06.744Z,62.62
2018-04-27T02:10:32.664Z,62.81
2018-04-27T02:12:58.583Z,62.23
2018-04-27T02:15:24.529Z,63.14
2018-04-27T02:17:50.485Z,62.72
2018-04-27T02:20:16.421Z,60.79
2018-04-27T02:22:42.359Z,62.30
2018-04-27T02:25:08.308Z,61.65
2018-04-27T02:27:34.247Z,61.16
2018-04-27T02:30:00.245Z,61.71
2018-04-27T02:32:26.138Z,61.59
2018-04-27T02:34:52.089Z,62.00
2018-04-27T02:37:18.030Z,62.00
2018-04-27T02:39:43.967Z,62.42
2018-04-27T02:42:09.908Z,62.72
2018-04-27T02:44:35.855Z,63.52
2018-04-27T02:47:01.819Z,63.75
2018-04-27T02:49:27.756Z,63.83
2018-04-27T02:51:53.698Z,64.89
2018-04-27T02:54:19.656Z,65.39
2018-04-27T02:56:45.610Z,64.77
2018-04-27T02:59:11.554Z,65.17
2018-04-27T03:01:37.508Z,66.14
2018-04-27T03:04:03.473Z,65.38
2018-04-27T03:06:29.430Z,65.17
2018-04-27T03:08:55.372Z,65.42
2018-04-27T03:11:21.323Z,65.19
2018-04-27T03:13:47.245Z,65.69
2018-04-27T03:16:13.170Z,65.81
2018-04-27T03:18:39.116Z,66.81
2018-04-27T03:21:05.058Z,66.04
2018-04-27T03:23:31.012Z,66.50
2018-04-27T03:25:56.953Z,65.79
2018-04-27T03:28:22.965Z,66.41
2018-04-27T03:30:48.893Z,66.74
2018-04-27T03:33:14.815Z,66.09
2018-04-27T03:35:40.844Z,65.74
2018-04-27T03:38:06.896Z,65.23
2018-04-27T03:40:32.839Z,65.58
2018-04-27T03:42:58.769Z,66.48
2018-04-27T03:45:24.746Z,67.15
2018-04-27T03:47:50.705Z,66.86
2018-04-27T03:50:16.656Z,66.11
2018-04-27T03:52:42.597Z,65.86
2018-04-27T03:55:08.535Z,65.42
2018-04-27T03:57:34.492Z,66.22
2018-04-27T04:00:02.616Z,66.63
2018-04-27T04:02:28.708Z,66.05
2018-04-27T04:04:54.628Z,65.21
2018-04-27T04:07:20.577Z,65.94
2018-04-27T04:09:46.495Z,65.93
2018-04-27T04:12:12.465Z,65.37
2018-04-27T04:14:38.387Z,64.73
2018-04-27T04:17:04.366Z,65.21
2018-04-27T04:19:30.429Z,64.36
2018-04-27T04:21:56.371Z,64.26
2018-04-27T04:24:22.307Z,64.20
2018-04-27T04:26:48.260Z,64.63
2018-04-27T04:29:14.210Z,64.27
2018-04-27T04:31:40.151Z,63.63
2018-04-27T04:34:06.081Z,63.40
2018-04-27T04:36:31.995Z,63.29
2018-04-27T04:38:57.930Z,62.69
2018-04-27T04:41:23.857Z,61.79
2018-04-27T04:43:49.822Z,62.29
2018-04-27T04:46:16.500Z,62.82
2018-04-27T04:48:43.046Z,62.71
2018-04-27T04:51:08.995Z,62.09
2018-04-27T04:53:34.969Z,62.17
2018-04-27T04:56:00.952Z,62.00
2018-04-27T04:58:26.845Z,61.17
2018-04-27T05:00:52.760Z,60.38
2018-04-27T05:03:18.723Z,60.58
2018-04-27T05:05:44.658Z,61.40
2018-04-27T05:08:10.723Z,60.73
2018-04-27T05:10:36.681Z,60.79
2018-04-27T05:13:02.662Z,62.19
2018-04-27T05:15:28.604Z,61.81
2018-04-27T05:17:54.544Z,61.38
2018-04-27T05:20:20.472Z,61.86
2018-04-27T05:22:46.447Z,61.05
2018-04-27T05:25:12.398Z,60.76
2018-04-27T05:27:38.329Z,60.31
2018-04-27T05:30:04.304Z,59.48
2018-04-27T05:32:30.255Z,58.67
2018-04-27T05:34:56.191Z,58.48
2018-04-27T05:37:22.143Z,59.42
2018-04-27T05:39:48.132Z,59.27
2018-04-27T05:42:14.066Z,60.16
2018-04-27T05:44:39.986Z,58.99
2018-04-27T05:47:05.932Z,58.25
2018-04-27T05:49:31.882Z,57.84
2018-04-27T05:51:57.828Z,57.60
2018-04-27T05:54:23.749Z,56.38
2018-04-27T05:56:49.678Z,56.37
2018-04-27T05:59:15.623Z,56.81
2018-04-27T06:01:41.576Z,57.02
2018-04-27T06:04:07.542Z,56.91
2018-04-27T06:06:33.488Z,56.30
2018-04-27T06:08:59.454Z,54.39
2018-04-27T06:11:25.412Z,53.94
2018-04-27T06:13:51.350Z,53.69
2018-04-27T06:16:17.261Z,54.70
2018-04-27T06:18:43.216Z,54.63
2018-04-27T06:21:09.152Z,54.05
2018-04-27T06:23:35.105Z,53.77
2018-04-27T06:26:01.046Z,54.10
2018-04-27T06:28:27.012Z,53.45
2018-04-27T06:30:52.933Z,52.12
2018-04-27T06:33:18.878Z,52.04
2018-04-27T06:35:44.820Z,51.08
2018-04-27T06:38:10.750Z,51.05
2018-04-27T06:40:36.701Z,51.18
2018-04-27T06:43:02.680Z,49.68
2018-04-27T06:45:28.610Z,50.17
2018-04-27T06:47:54.536Z,48.74
2018-04-27T06:50:20.486Z,48.21
2018-04-27T06:52:46.417Z,47.61
2018-04-27T06:55:12.361Z,47.27
2018-04-27T06:57:38.287Z,47.76
2018-04-27T07:00:04.218Z,47.08
2018-04-27T07:02:30.136Z,46.03
2018-04-27T07:04:56.095Z,44.41
2018-04-27T07:07:22.049Z,46.15
2018-04-27T07:09:47.995Z,45.22
2018-04-27T07:12:13.939Z,45.05
2018-04-27T07:14:39.865Z,44.40
2018-04-27T07:17:05.815Z,44.29
2018-04-27T07:19:31.760Z,43.74
2018-04-27T07:21:57.688Z,44.62
2018-04-27T07:24:23.664Z,45.53
2018-04-27T07:26:49.626Z,46.02
2018-04-27T07:29:15.591Z,46.68
2018-04-27T07:31:41.523Z,46.65
2018-04-27T07:34:07.636Z,47.99
2018-04-27T07:36:33.552Z,47.53
2018-04-27T07:38:59.478Z,47.65
2018-04-27T07:41:25.424Z,47.09
2018-04-27T07:43:51.377Z,47.46
2018-04-27T07:46:17.316Z,45.88
2018-04-27T07:48:43.248Z,46.70
2018-04-27T07:51:09.166Z,45.12
2018-04-27T07:53:35.106Z,46.46
2018-04-27T07:56:01.057Z,47.17
2018-04-27T07:58:26.999Z,47.37
2018-04-27T08:00:52.952Z,48.48
2018-04-27T08:03:18.896Z,49.70
2018-04-27T08:05:44.846Z,48.75
2018-04-27T08:08:10.787Z,50.40
2018-04-27T08:10:36.739Z,49.12
2018-04-27T08:13:02.707Z,49.43
2018-04-27T08:15:28.659Z,48.97
2018-04-27T08:17:55.635Z,50.04
2018-04-27T08:20:21.557Z,48.29
2018-04-27T08:22:47.516Z,47.74
2018-04-27T08:25:13.436Z,49.85
2018-04-27T08:27:39.390Z,47.88
2018-04-27T08:30:05.370Z,48.15
2018-04-27T08:32:31.327Z,45.80
2018-04-27T08:34:57.300Z,47.04
2018-04-27T08:37:23.253Z,47.48
2018-04-27T08:39:49.211Z,44.17
2018-04-27T08:42:15.138Z,45.49
2018-04-27T08:44:41.076Z,42.97
2018-04-27T08:47:07.027Z,45.99
2018-04-27T08:49:32.968Z,42.04
2018-04-27T08:51:58.981Z,42.85
2018-04-27T08:54:24.928Z,42.95
2018-04-27T08:56:50.877Z,43.92
2018-04-27T08:59:16.821Z,42.77
2018-04-27T09:01:42.739Z,43.16
2018-04-27T09:04:08.768Z,41.03
2018-04-27T09:06:34.717Z,43.42
2018-04-27T09:09:00.711Z,41.10
2018-04-27T09:11:26.652Z,42.53
2018-04-27T09:13:52.573Z,40.80
2018-04-27T09:16:18.589Z,42.16
2018-04-27T09:18:44.516Z,40.58
2018-04-27T09:21:10.446Z,40.95
2018-04-27T09:23:36.389Z,41.63
2018-04-27T09:26:02.391Z,45.27
2018-04-27T09:28:28.269Z,41.61
2018-04-27T09:30:54.203Z,42.52
2018-04-27T09:33:20.149Z,41.17
2018-04-27T09:35:46.082Z,40.86
2018-04-27T09:38:12.407Z,40.43
2018-04-27T09:40:38.365Z,41.59
2018-04-27T09:43:04.321Z,41.58
2018-04-27T09:45:30.258Z,40.58
2018-04-27T09:47:56.204Z,42.82
2018-04-27T09:50:22.142Z,41.08
2018-04-27T09:52:48.104Z,42.17
2018-04-27T09:55:14.053Z,40.26
2018-04-27T09:57:40.000Z,41.56
2018-04-27T10:00:05.933Z,40.90
2018-04-27T10:02:31.869Z,40.57
2018-04-27T10:04:57.791Z,40.55
2018-04-27T10:07:23.741Z,42.73
2018-04-27T10:09:49.681Z,41.88
2018-04-27T10:12:15.663Z,42.55
2018-04-27T10:14:41.623Z,41.11
2018-04-27T10:17:07.579Z,41.85
2018-04-27T10:19:33.531Z,42.93
2018-04-27T10:21:59.496Z,41.44
2018-04-27T10:24:25.452Z,39.15
2018-04-27T10:26:51.412Z,39.40
2018-04-27T10:29:17.354Z,39.03
2018-04-27T10:31:43.324Z,38.59
2018-04-27T10:34:09.272Z,39.07
2018-04-27T10:36:35.308Z,41.33
2018-04-27T10:39:01.229Z,39.46
2018-04-27T10:41:27.179Z,37.70
2018-04-27T10:43:53.122Z,38.28
2018-04-27T10:46:19.064Z,37.48
2018-04-27T10:48:45.026Z,37.63
2018-04-27T10:51:10.971Z,37.03
2018-04-27T10:53:36.898Z,36.38
2018-04-27T10:56:02.819Z,36.60
2018-04-27T10:58:28.753Z,37.18
2018-04-27T11:00:54.726Z,38.89
2018-04-27T11:03:20.717Z,33.91
2018-04-27T11:05:46.628Z,34.49
2018-04-27T11:08:12.599Z,34.08
2018-04-27T11:10:38.547Z,33.82
2018-04-27T11:13:04.819Z,33.27
2018-04-27T11:15:30.767Z,33.69
2018-04-27T11:17:56.721Z,33.72
2018-04-27T11:20:22.665Z,34.14
2018-04-27T11:22:48.622Z,34.44
2018-04-27T11:25:14.543Z,34.73
2018-04-27T11:27:40.481Z,33.59
2018-04-27T11:30:06.408Z,34.85
2018-04-27T11:32:32.344Z,37.51
2018-04-27T11:34:58.273Z,33.30
2018-04-27T11:37:24.231Z,32.84
2018-04-27T11:39:50.157Z,33.44
2018-04-27T11:42:16.125Z,35.46
2018-04-27T11:44:42.080Z,33.58
2018-04-27T11:47:08.020Z,33.48
2018-04-27T11:49:33.951Z,33.55
2018-04-27T11:51:59.896Z,33.85
2018-04-27T11:54:25.870Z,33.69
2018-04-27T11:56:51.818Z,33.37
2018-04-27T11:59:17.763Z,33.76
2018-04-27T12:01:43.840Z,36.93
2018-04-27T12:04:09.866Z,35.11
2018-04-27T12:06:35.818Z,37.14
2018-04-27T12:09:01.755Z,35.23
2018-04-27T12:11:27.721Z,33.72
2018-04-27T12:13:53.661Z,35.66
2018-04-27T12:16:19.581Z,35.23
2018-04-27T12:18:45.519Z,35.12
2018-04-27T12:21:11.473Z,37.06
2018-04-27T12:23:37.446Z,34.80
2018-04-27T12:26:03.391Z,34.96
2018-04-27T12:28:29.379Z,34.39
2018-04-27T12:30:55.363Z,34.15
2018-04-27T12:33:21.335Z,36.03
2018-04-27T12:35:47.290Z,37.33
2018-04-27T12:38:13.274Z,38.00
2018-04-27T12:40:39.214Z,38.39
2018-04-27T12:43:05.211Z,37.92
2018-04-27T12:45:31.137Z,34.40
2018-04-27T12:47:57.079Z,34.20
2018-04-27T12:50:23.017Z,34.58
2018-04-27T12:52:48.988Z,33.10
2018-04-27T12:55:14.928Z,33.68
2018-04-27T12:57:40.881Z,34.47
2018-04-27T13:00:06.814Z,32.98
2018-04-27T13:02:32.803Z,33.21
2018-04-27T13:04:58.757Z,33.13
2018-04-27T13:07:24.701Z,34.59
2018-04-27T13:09:50.636Z,33.67
2018-04-27T13:12:16.591Z,32.74
2018-04-27T13:14:42.592Z,32.56
2018-04-27T13:17:08.535Z,33.60
2018-04-27T13:19:34.494Z,32.23
2018-04-27T13:22:00.447Z,32.70
2018-04-27T13:24:26.406Z,33.91
2018-04-27T13:26:52.360Z,34.12
2018-04-27T13:29:18.357Z,33.42
2018-04-27T13:31:44.311Z,34.88
2018-04-27T13:34:10.257Z,33.98
2018-04-27T13:36:36.210Z,34.68
2018-04-27T13:39:02.160Z,36.33
2018-04-27T13:41:28.093Z,34.64
2018-04-27T13:43:54.039Z,36.14
2018-04-27T13:46:19.981Z,35.54
2018-04-27T13:48:45.942Z,35.65
2018-04-27T13:51:11.892Z,35.22
2018-04-27T13:53:37.830Z,34.10
2018-04-27T13:56:03.810Z,34.08
2018-04-27T13:58:29.795Z,33.89
2018-04-27T14:00:55.755Z,34.72
2018-04-27T14:03:21.713Z,34.08
2018-04-27T14:05:47.680Z,34.67
2018-04-27T14:08:13.616Z,33.93
2018-04-27T14:10:39.556Z,34.58
2018-04-27T14:13:06.388Z,35.46
2018-04-27T14:15:32.405Z,34.48
2018-04-27T14:17:59.420Z,34.55
2018-04-27T14:20:25.370Z,34.49
2018-04-27T14:22:51.334Z,34.11
2018-04-27T14:25:17.294Z,34.84
2018-04-27T14:27:43.244Z,34.64
2018-04-27T14:30:09.189Z,34.21
2018-04-27T14:32:35.115Z,35.23
2018-04-27T14:35:01.053Z,35.06
2018-04-27T14:37:26.984Z,34.50
2018-04-27T14:39:52.926Z,34.01
2018-04-27T14:42:19.101Z,34.32
2018-04-27T14:44:45.208Z,35.69
2018-04-27T14:47:11.200Z,33.99
2018-04-27T14:49:37.272Z,34.52
2018-04-27T14:52:03.319Z,34.53
2018-04-27T14:54:29.379Z,34.67
2018-04-27T14:56:55.336Z,37.29
2018-04-27T14:59:22.390Z,34.42
2018-04-27T15:01:48.381Z,35.36
2018-04-27T15:04:14.414Z,35.91
2018-04-27T15:06:40.401Z,36.20
2018-04-27T15:09:06.983Z,35.84
2018-04-27T15:11:32.959Z,35.34
2018-04-27T15:13:58.935Z,35.39
2018-04-27T15:16:24.861Z,38.09
2018-04-27T15:18:50.820Z,35.01
2018-04-27T15:21:16.740Z,35.03
2018-04-27T15:23:42.683Z,34.33
2018-04-27T15:26:08.649Z,34.31
2018-04-27T15:28:34.612Z,34.97
2018-04-27T15:31:00.575Z,33.66
2018-04-27T15:33:26.528Z,33.30
2018-04-27T15:35:52.480Z,33.33
2018-04-27T15:38:18.436Z,33.65
2018-04-27T15:40:44.373Z,34.13
2018-04-27T15:43:10.329Z,34.60
2018-04-27T15:45:36.272Z,35.34
2018-04-27T15:48:02.201Z,33.22
2018-04-27T15:50:28.164Z,33.29
2018-04-27T15:52:54.117Z,33.58
2018-04-27T15:55:20.098Z,33.44
2018-04-27T15:57:46.040Z,33.16
2018-04-27T16:00:12.029Z,33.65
2018-04-27T16:02:37.978Z,34.29
2018-04-27T16:05:03.913Z,34.43
2018-04-27T16:07:29.897Z,34.66
2018-04-27T16:09:55.891Z,34.61
2018-04-27T16:12:21.854Z,35.11
2018-04-27T16:14:47.817Z,35.82
2018-04-27T16:17:13.775Z,34.95
2018-04-27T16:19:39.714Z,35.39
2018-04-27T16:22:05.646Z,34.40
2018-04-27T16:24:31.634Z,34.67
2018-04-27T16:26:57.555Z,34.78
2018-04-27T16:29:23.492Z,35.38
2018-04-27T16:31:49.438Z,34.57
2018-04-27T16:34:15.405Z,35.01
2018-04-27T16:36:41.341Z,34.53
2018-04-27T16:39:07.273Z,35.33
2018-04-27T16:41:33.254Z,34.93
2018-04-27T16:43:59.204Z,35.29
2018-04-27T16:46:25.130Z,35.46
2018-04-27T16:48:51.064Z,34.97
2018-04-27T16:51:17.009Z,35.47
2018-04-27T16:53:42.955Z,35.21
2018-04-27T16:56:08.907Z,35.26
2018-04-27T16:58:34.839Z,35.48
2018-04-27T17:01:00.776Z,34.99
2018-04-27T17:03:26.745Z,35.04
2018-04-27T17:05:52.673Z,35.62
2018-04-27T17:08:18.610Z,35.40
2018-04-27T17:10:44.546Z,35.83
2018-04-27T17:13:10.484Z,35.87
2018-04-27T17:15:36.433Z,36.02
2018-04-27T17:18:02.391Z,35.74
2018-04-27T17:20:28.351Z,36.01
2018-04-27T17:22:54.303Z,36.31
2018-04-27T17:25:20.308Z,36.16
2018-04-27T17:27:46.247Z,36.16
2018-04-27T17:30:15.829Z,36.13
2018-04-27T17:32:41.877Z,35.96
2018-04-27T17:35:07.826Z,36.03
2018-04-27T17:37:33.812Z,36.03
2018-04-27T17:39:59.773Z,36.41
2018-04-27T17:42:25.745Z,36.69
2018-04-27T17:44:51.693Z,36.43
2018-04-27T17:47:17.637Z,37.27
2018-04-27T17:49:43.575Z,36.95
2018-04-27T17:52:09.508Z,36.94
2018-04-27T17:54:35.449Z,36.80
2018-04-27T17:57:01.393Z,36.59
2018-04-27T17:59:27.591Z,37.59
2018-04-27T18:01:53.496Z,37.45
2018-04-27T18:04:19.417Z,37.98
2018-04-27T18:06:45.355Z,37.82
2018-04-27T18:09:11.423Z,38.39
2018-04-27T18:11:37.768Z,37.38
2018-04-27T18:14:03.739Z,37.61
2018-04-27T18:16:29.716Z,37.45
2018-04-27T18:18:55.678Z,37.72
2018-04-27T18:21:21.632Z,38.03
2018-04-27T18:23:47.575Z,38.06
2018-04-27T18:26:13.584Z,38.17
2018-04-27T18:28:39.518Z,38.57
2018-04-27T18:31:05.517Z,39.32
2018-04-27T18:33:31.467Z,40.21
2018-04-27T18:35:57.433Z,40.57
2018-04-27T18:38:24.383Z,40.98
2018-04-27T18:40:50.323Z,41.00
2018-04-27T18:43:16.297Z,41.03
2018-04-27T18:45:42.258Z,40.73
2018-04-27T18:48:08.236Z,40.85
2018-04-27T18:50:34.199Z,41.64
2018-04-27T18:53:00.125Z,42.18
2018-04-27T18:55:26.066Z,42.41
2018-04-27T18:57:52.006Z,43.00
2018-04-27T19:00:17.969Z,43.12
2018-04-27T19:02:43.926Z,43.02
2018-04-27T19:05:09.858Z,43.02
2018-04-27T19:07:35.816Z,43.11
2018-04-27T19:10:01.747Z,43.02
2018-04-27T19:12:27.697Z,44.03
2018-04-27T19:14:53.645Z,44.56
2018-04-27T19:17:19.594Z,44.47
2018-04-27T19:19:45.534Z,45.04
2018-04-27T19:22:11.478Z,45.23
2018-04-27T19:24:37.450Z,45.14
2018-04-27T19:27:03.410Z,45.91
2018-04-27T19:29:29.441Z,46.35
2018-04-27T19:31:55.420Z,47.44
2018-04-27T19:34:21.371Z,48.02
2018-04-27T19:36:47.344Z,47.82
2018-04-27T19:39:13.305Z,47.56
2018-04-27T19:41:39.242Z,47.78
2018-04-27T19:44:05.165Z,47.61
2018-04-27T19:46:31.114Z,48.86
2018-04-27T19:48:57.071Z,48.76
2018-04-27T19:51:23.017Z,49.25
2018-04-27T19:53:48.951Z,49.68
2018-04-27T19:56:14.901Z,49.54
2018-04-27T19:58:40.848Z,49.16
2018-04-27T20:01:06.801Z,50.05
2018-04-27T20:03:32.752Z,50.34
2018-04-27T20:05:58.686Z,51.04
2018-04-27T20:08:24.645Z,50.35
2018-04-27T20:10:50.642Z,51.24
2018-04-27T20:13:16.570Z,50.99
2018-04-27T20:15:42.508Z,49.98
2018-04-27T20:18:08.480Z,50.59
2018-04-27T20:20:34.420Z,51.37
2018-04-27T20:23:00.390Z,51.40
2018-04-27T20:25:26.321Z,51.18
2018-04-27T20:27:52.261Z,50.98
2018-04-27T20:30:18.229Z,51.51
2018-04-27T20:32:44.181Z,51.78
2018-04-27T20:35:10.113Z,51.71
2018-04-27T20:37:36.060Z,52.21
2018-04-27T20:40:03.062Z,52.05
2018-04-27T20:42:29.026Z,52.25
2018-04-27T20:44:54.979Z,53.22
2018-04-27T20:47:20.944Z,53.29
2018-04-27T20:49:46.892Z,54.24
2018-04-27T20:52:12.848Z,54.31
2018-04-27T20:54:39.839Z,53.90
2018-04-27T20:57:05.817Z,53.47
2018-04-27T20:59:31.755Z,53.74
2018-04-27T21:01:57.697Z,54.02
2018-04-27T21:04:23.685Z,53.85
2018-04-27T21:06:49.691Z,53.81
2018-04-27T21:09:15.630Z,54.37
2018-04-27T21:11:41.597Z,54.36
2018-04-27T21:14:07.619Z,54.87
2018-04-27T21:16:33.528Z,54.35
2018-04-27T21:18:59.481Z,54.86
2018-04-27T21:21:25.428Z,54.69
2018-04-27T21:23:51.419Z,54.43
2018-04-27T21:26:17.621Z,54.73
2018-04-27T21:28:43.592Z,54.24
2018-04-27T21:31:09.581Z,54.11
2018-04-27T21:33:35.537Z,54.84
2018-04-27T21:36:02.526Z,55.23
2018-04-27T21:38:28.514Z,55.48
2018-04-27T21:40:54.484Z,55.34
2018-04-27T21:43:20.448Z,55.42
2018-04-27T21:45:46.377Z,55.04
2018-04-27T21:48:12.719Z,55.05
2018-04-27T21:50:38.681Z,54.25
2018-04-27T21:53:04.649Z,55.32
2018-04-27T21:55:30.585Z,54.80
2018-04-27T21:57:56.574Z,55.53
2018-04-27T22:00:22.511Z,55.24
2018-04-27T22:02:48.461Z,55.96
2018-04-27T22:05:14.448Z,56.40
2018-04-27T22:07:40.437Z,56.69
2018-04-27T22:10:06.379Z,56.23
2018-04-27T22:12:32.347Z,56.30
2018-04-27T22:14:58.329Z,56.98
2018-04-27T22:17:24.267Z,57.00
2018-04-27T22:19:50.220Z,57.58
2018-04-27T22:22:16.182Z,57.69
2018-04-27T22:24:42.162Z,57.09
2018-04-27T22:27:08.121Z,57.28
2018-04-27T22:29:34.089Z,57.12
2018-04-27T22:32:00.040Z,56.80
2018-04-27T22:34:26.049Z,56.93
2018-04-27T22:36:52.022Z,57.30
2018-04-27T22:39:17.993Z,57.04
2018-04-27T22:41:43.965Z,56.98
2018-04-27T22:44:09.916Z,57.90
2018-04-27T22:46:35.873Z,57.80
2018-04-27T22:49:01.831Z,57.67
2018-04-27T22:51:27.798Z,57.52
2018-04-27T22:53:53.773Z,58.46
2018-04-27T22:56:19.764Z,58.21
2018-04-27T22:58:45.736Z,58.49
2018-04-27T23:01:12.264Z,58.78
2018-04-27T23:03:38.219Z,58.14
2018-04-27T23:06:04.162Z,58.03
2018-04-27T23:08:30.103Z,58.29
2018-04-27T23:10:56.084Z,58.01
2018-04-27T23:13:22.018Z,58.73
2018-04-27T23:15:47.968Z,59.30
2018-04-27T23:18:13.930Z,59.41
2018-04-27T23:20:39.893Z,59.71
2018-04-27T23:23:05.874Z,59.02
2018-04-27T23:25:31.865Z,59.62
2018-04-27T23:27:57.811Z,59.79
2018-04-27T23:30:23.738Z,59.84
2018-04-27T23:32:49.680Z,59.94
2018-04-27T23:35:15.677Z,60.04
2018-04-27T23:37:41.620Z,59.34
2018-04-27T23:40:07.596Z,59.00
2018-04-27T23:42:33.543Z,59.83
2018-04-27T23:44:59.499Z,59.32
2018-04-27T23:47:25.450Z,60.17
2018-04-27T23:49:51.401Z,60.37
2018-04-27T23:52:17.325Z,61.18
2018-04-27T23:54:43.272Z,60.78
2018-04-27T23:57:09.204Z,59.95
2018-04-27T23:59:35.131Z,59.83
